Time;durP1;ratioP1;P1;durP2;ratioP2;P2;SDS_P1;SDS_P2;PMS_P1;PMS_P2;Temp;Humidity;BMP_temperature;BMP_pressure;BME280_temperature;BME280_humidity;BME280_pressure;Samples;Min_cycle;Max_cycle;Signal;HPM_P1;HPM_P2
2021/05/20 00:00:01;;;;;;;0.50;0.40;;;10.00;99.90;;;;;;5031896;28;20250;-77
2021/05/20 00:02:27;;;;;;;1.60;1.50;;;10.00;99.90;;;;;;5031498;28;20216;-77
2021/05/20 00:04:53;;;;;;;0.50;0.40;;;10.00;99.90;;;;;;5031225;28;20200;-77
2021/05/20 00:07:21;;;;;;;0.50;0.40;;;10.00;99.90;;;;;;5031806;28;20275;-77
2021/05/20 00:09:47;;;;;;;0.50;0.40;;;9.90;99.90;;;;;;5031455;28;20193;-77
2021/05/20 00:12:13;;;;;;;0.70;0.70;;;9.90;99.90;;;;;;5031536;28;20611;-77
2021/05/20 00:14:40;;;;;;;0.50;0.40;;;9.80;99.90;;;;;;5032633;28;20589;-79
2021/05/20 00:17:07;;;;;;;0.50;0.40;;;9.80;99.90;;;;;;5046588;28;20221;-79
2021/05/20 00:19:33;;;;;;;0.50;0.40;;;9.70;99.90;;;;;;5054191;28;20205;-79
2021/05/20 00:22:00;;;;;;;0.60;0.60;;;9.70;99.90;;;;;;5054289;28;20211;-79
2021/05/20 00:24:27;;;;;;;0.60;0.50;;;9.70;99.90;;;;;;5053542;28;20196;-80
2021/05/20 00:26:53;;;;;;;1.20;1.10;;;9.70;99.90;;;;;;5053898;28;20759;-78
2021/05/20 00:29:19;;;;;;;0.50;0.40;;;9.70;99.90;;;;;;5054353;28;20196;-79
2021/05/20 00:31:45;;;;;;;0.50;0.40;;;9.60;99.90;;;;;;5053649;28;20670;-79
2021/05/20 00:34:12;;;;;;;0.50;0.40;;;9.60;99.90;;;;;;5054050;28;20564;-77
2021/05/20 00:36:38;;;;;;;0.50;0.40;;;9.50;99.90;;;;;;5050959;28;20710;-76
2021/05/20 00:39:05;;;;;;;0.50;0.40;;;9.60;99.90;;;;;;5051170;28;20261;-77
2021/05/20 00:41:33;;;;;;;0.50;0.40;;;9.50;99.90;;;;;;5051178;28;20224;-76
2021/05/20 00:43:59;;;;;;;0.50;0.40;;;9.50;99.90;;;;;;5050834;28;20247;-77
2021/05/20 00:46:25;;;;;;;0.50;0.40;;;9.50;99.90;;;;;;5050595;28;20234;-75
2021/05/20 00:48:51;;;;;;;0.50;0.40;;;9.50;99.90;;;;;;5051060;28;20235;-77
2021/05/20 00:51:18;;;;;;;0.50;0.40;;;9.50;99.90;;;;;;5051189;28;20197;-77
2021/05/20 00:53:47;;;;;;;0.50;0.40;;;9.50;99.90;;;;;;5050976;28;20208;-77
2021/05/20 00:56:15;;;;;;;0.50;0.40;;;9.50;99.90;;;;;;5050921;28;20220;-77
2021/05/20 00:58:45;;;;;;;0.50;0.40;;;9.40;99.90;;;;;;5051271;28;20195;-77
2021/05/20 01:01:12;;;;;;;0.50;0.40;;;9.30;99.90;;;;;;5050297;28;20720;-77
2021/05/20 01:03:39;;;;;;;0.50;0.40;;;9.20;99.90;;;;;;5050704;28;20202;-75
2021/05/20 01:06:05;;;;;;;0.50;0.40;;;9.20;99.90;;;;;;5051125;28;20223;-77
2021/05/20 01:08:32;;;;;;;0.50;0.40;;;9.10;99.90;;;;;;5050982;28;20602;-77
2021/05/20 01:10:59;;;;;;;0.50;0.40;;;9.00;99.90;;;;;;5053515;28;20284;-79
2021/05/20 01:13:26;;;;;;;0.50;0.40;;;9.00;99.90;;;;;;5054214;28;20253;-79
2021/05/20 01:15:53;;;;;;;1.92;1.58;;;9.00;99.90;;;;;;5054285;28;20225;-80
2021/05/20 01:18:19;;;;;;;1.13;1.13;;;9.00;99.90;;;;;;5053467;28;20223;-80
2021/05/20 01:20:46;;;;;;;0.50;0.40;;;9.00;99.90;;;;;;5054629;28;20191;-80
2021/05/20 01:23:14;;;;;;;0.50;0.40;;;9.00;99.90;;;;;;5054141;28;20230;-77
2021/05/20 01:25:44;;;;;;;0.50;0.40;;;9.10;99.90;;;;;;5054871;28;20566;-76
2021/05/20 01:28:12;;;;;;;0.50;0.40;;;9.20;99.90;;;;;;5054462;28;20200;-77
2021/05/20 01:30:40;;;;;;;1.13;1.13;;;9.30;99.90;;;;;;5054750;28;20205;-76
2021/05/20 01:33:07;;;;;;;0.50;0.50;;;9.30;99.90;;;;;;5053313;28;20219;-75
2021/05/20 01:35:34;;;;;;;1.20;1.20;;;9.40;99.90;;;;;;5055825;28;20223;-78
2021/05/20 01:38:34;;;;;;;0.50;0.40;;;9.40;99.90;;;;;;5057493;28;20196;-79
2021/05/20 01:41:04;;;;;;;0.50;0.40;;;9.40;99.90;;;;;;5057802;28;20234;-78
2021/05/20 01:43:33;;;;;;;9.02;8.63;;;9.40;99.90;;;;;;5057593;28;20621;-78
2021/05/20 01:45:59;;;;;;;0.50;0.40;;;9.40;99.90;;;;;;5056829;28;20749;-77
2021/05/20 01:48:28;;;;;;;0.50;0.40;;;9.40;99.90;;;;;;5057091;28;20204;-79
2021/05/20 01:51:00;;;;;;;0.50;0.40;;;9.50;99.90;;;;;;5057614;28;20199;-79
2021/05/20 01:53:27;;;;;;;0.52;0.50;;;9.40;99.90;;;;;;5056987;28;20572;-79
2021/05/20 01:55:54;;;;;;;0.50;0.40;;;9.40;99.90;;;;;;5057269;28;20228;-80
2021/05/20 01:58:20;;;;;;;0.50;0.40;;;9.50;99.90;;;;;;5057031;28;20197;-80
2021/05/20 02:00:46;;;;;;;0.50;0.40;;;9.50;99.90;;;;;;5056857;28;20204;-80
2021/05/20 02:03:12;;;;;;;0.50;0.40;;;9.50;99.90;;;;;;5056630;28;20216;-79
2021/05/20 02:05:38;;;;;;;0.50;0.50;;;9.50;99.90;;;;;;5056941;28;20690;-79
2021/05/20 02:08:05;;;;;;;1.35;1.35;;;9.50;99.90;;;;;;5057546;28;20197;-78
2021/05/20 02:10:32;;;;;;;0.50;0.45;;;9.50;99.90;;;;;;5057225;28;20197;-76
2021/05/20 02:12:59;;;;;;;0.50;0.40;;;9.50;99.90;;;;;;5056978;28;20204;-79
2021/05/20 02:15:25;;;;;;;0.50;0.40;;;9.40;99.90;;;;;;5056593;28;20215;-77
2021/05/20 02:17:53;;;;;;;0.50;0.40;;;9.40;99.90;;;;;;5057150;28;20200;-79
2021/05/20 02:20:19;;;;;;;0.50;0.50;;;9.30;99.90;;;;;;5060304;28;20206;-79
2021/05/20 02:22:46;;;;;;;0.70;0.70;;;9.40;99.90;;;;;;5059913;28;20223;-80
2021/05/20 02:25:12;;;;;;;0.50;0.50;;;9.40;99.90;;;;;;5060094;28;20208;-79
2021/05/20 02:27:40;;;;;;;0.50;0.40;;;9.40;99.90;;;;;;5059171;28;20586;-77
2021/05/20 02:30:09;;;;;;;0.50;0.40;;;9.30;99.90;;;;;;5060850;28;20583;-79
2021/05/20 02:32:35;;;;;;;0.50;0.40;;;9.30;99.90;;;;;;5060325;28;20200;-78
2021/05/20 02:35:02;;;;;;;0.50;0.40;;;9.30;99.90;;;;;;5058870;28;20196;-79
2021/05/20 02:37:28;;;;;;;0.50;0.40;;;9.30;99.90;;;;;;5060344;28;20222;-76
2021/05/20 02:39:55;;;;;;;0.50;0.40;;;9.30;99.90;;;;;;5060261;28;20195;-80
2021/05/20 02:42:21;;;;;;;0.50;0.40;;;9.30;99.90;;;;;;5059114;28;20223;-79
2021/05/20 02:44:48;;;;;;;1.17;1.08;;;9.30;99.90;;;;;;5057934;28;20192;-77
2021/05/20 02:47:15;;;;;;;0.50;0.40;;;9.30;99.90;;;;;;5054028;28;20220;-77
2021/05/20 02:49:42;;;;;;;0.70;0.70;;;9.30;99.90;;;;;;5053339;28;20504;-77
2021/05/20 02:52:09;;;;;;;0.50;0.40;;;9.40;99.90;;;;;;5053048;28;20192;-76
2021/05/20 02:54:35;;;;;;;0.63;0.63;;;9.40;99.90;;;;;;5052854;28;20279;-77
2021/05/20 02:57:01;;;;;;;0.50;0.40;;;9.40;99.90;;;;;;5052589;28;20739;-77
2021/05/20 02:59:28;;;;;;;0.50;0.40;;;9.40;99.90;;;;;;5053391;28;20200;-77
2021/05/20 03:02:02;;;;;;;0.50;0.40;;;9.40;99.90;;;;;;5052046;28;20218;-78
2021/05/20 03:04:28;;;;;;;0.70;0.70;;;9.40;99.90;;;;;;5052630;28;20654;-77
2021/05/20 03:06:55;;;;;;;0.50;0.40;;;9.40;99.90;;;;;;5052824;28;20265;-77
2021/05/20 03:09:21;;;;;;;1.95;1.85;;;9.50;99.90;;;;;;5052861;28;20196;-78
2021/05/20 03:11:47;;;;;;;0.60;0.57;;;9.50;99.90;;;;;;5052537;28;20202;-77
2021/05/20 03:14:13;;;;;;;0.60;0.60;;;9.60;99.90;;;;;;5052627;28;20196;-77
2021/05/20 03:16:40;;;;;;;1.05;1.02;;;9.70;99.90;;;;;;5052143;28;20271;-76
2021/05/20 03:19:07;;;;;;;0.50;0.40;;;9.70;99.90;;;;;;5052613;28;20215;-77
2021/05/20 03:21:33;;;;;;;0.50;0.40;;;9.80;99.90;;;;;;5052473;28;20855;-78
2021/05/20 03:23:59;;;;;;;10.95;2.15;;;9.70;99.90;;;;;;5052498;28;20196;-76
2021/05/20 03:26:25;;;;;;;0.90;0.50;;;9.80;99.90;;;;;;5061127;28;20215;-80
2021/05/20 03:28:52;;;;;;;0.90;0.90;;;9.70;99.90;;;;;;5062123;28;20568;-79
2021/05/20 03:31:18;;;;;;;0.73;0.73;;;9.70;99.90;;;;;;5059903;28;20227;-80
2021/05/20 03:33:44;;;;;;;2.47;2.33;;;9.70;99.90;;;;;;5059801;28;20207;-78
2021/05/20 03:36:11;;;;;;;2.97;2.88;;;9.70;99.90;;;;;;5052081;28;20310;-77
2021/05/20 03:38:37;;;;;;;7.30;4.10;;;9.70;99.90;;;;;;5053098;28;20206;-77
2021/05/20 03:41:04;;;;;;;28.65;9.23;;;9.60;99.90;;;;;;5052571;28;20200;-77
2021/05/20 03:43:31;;;;;;;0.80;0.80;;;9.60;99.90;;;;;;5051852;28;20203;-77
2021/05/20 03:45:57;;;;;;;0.73;0.73;;;9.60;99.90;;;;;;5050725;28;20228;-77
2021/05/20 03:48:24;;;;;;;0.88;0.70;;;9.60;99.90;;;;;;5051589;28;20189;-77
2021/05/20 03:50:50;;;;;;;0.75;0.73;;;9.60;99.90;;;;;;5052712;28;20201;-78
2021/05/20 03:53:18;;;;;;;6.68;6.28;;;9.60;99.90;;;;;;5052118;28;20679;-78
2021/05/20 03:55:46;;;;;;;0.50;0.40;;;9.60;99.90;;;;;;5052168;28;20686;-78
2021/05/20 03:58:12;;;;;;;0.70;0.70;;;9.60;99.90;;;;;;5052467;28;20203;-78
2021/05/20 04:00:39;;;;;;;2.25;2.17;;;9.60;99.90;;;;;;5052187;28;20193;-81
2021/05/20 04:03:05;;;;;;;0.50;0.40;;;9.60;99.90;;;;;;5051912;28;20217;-78
2021/05/20 04:05:31;;;;;;;1.25;1.15;;;9.60;99.90;;;;;;5052810;28;20666;-77
2021/05/20 04:07:57;;;;;;;2.53;1.85;;;9.60;99.90;;;;;;5051930;28;20734;-77
2021/05/20 04:10:24;;;;;;;3.45;3.25;;;9.60;99.90;;;;;;5052002;28;20192;-77
2021/05/20 04:12:51;;;;;;;8.88;6.22;;;9.60;99.90;;;;;;5051981;28;20311;-79
2021/05/20 04:15:18;;;;;;;0.85;0.85;;;9.60;99.90;;;;;;5051521;28;20195;-78
2021/05/20 04:17:44;;;;;;;4.90;3.20;;;9.60;99.90;;;;;;5051267;28;20638;-79
2021/05/20 04:20:12;;;;;;;1.13;1.05;;;9.60;99.90;;;;;;5052398;28;20196;-78
2021/05/20 04:22:38;;;;;;;10.95;2.08;;;9.50;99.90;;;;;;5052235;28;20378;-77
2021/05/20 04:25:05;;;;;;;4.22;4.03;;;9.50;99.90;;;;;;5051228;28;20219;-79
2021/05/20 04:27:32;;;;;;;0.50;0.40;;;9.60;99.90;;;;;;5051740;28;20217;-78
2021/05/20 04:29:58;;;;;;;2.25;1.52;;;9.60;99.90;;;;;;5051527;28;20199;-77
2021/05/20 04:32:25;;;;;;;1.77;1.67;;;9.50;99.90;;;;;;5051231;28;20199;-78
2021/05/20 04:34:51;;;;;;;2.22;2.00;;;9.50;99.90;;;;;;5051423;28;20192;-78
2021/05/20 04:37:17;;;;;;;0.50;0.40;;;9.60;99.90;;;;;;5052362;28;20212;-79
2021/05/20 04:39:43;;;;;;;0.50;0.40;;;9.70;99.90;;;;;;5051262;28;20199;-77
2021/05/20 04:42:09;;;;;;;2.63;1.48;;;9.60;99.90;;;;;;5051730;28;20218;-79
2021/05/20 04:44:37;;;;;;;0.88;0.88;;;9.70;99.90;;;;;;5051193;28;20718;-78
2021/05/20 04:47:03;;;;;;;0.57;0.55;;;9.70;99.90;;;;;;5064840;22;20227;-80
2021/05/20 04:49:30;;;;;;;2.25;0.95;;;9.70;99.90;;;;;;5058561;28;20264;-80
2021/05/20 04:51:56;;;;;;;8.57;2.67;;;9.70;99.90;;;;;;5058942;28;20258;-80
2021/05/20 04:54:22;;;;;;;1.60;1.60;;;9.80;99.90;;;;;;5043613;28;20197;-81
2021/05/20 04:56:48;;;;;;;20.70;4.65;;;9.90;99.90;;;;;;5047100;28;20243;-80
2021/05/20 04:59:15;;;;;;;1.60;1.50;;;9.90;99.90;;;;;;5067448;28;20204;-80
2021/05/20 05:01:42;;;;;;;4.13;3.75;;;9.90;99.90;;;;;;5067053;28;20220;-79
2021/05/20 05:04:08;;;;;;;0.60;0.50;;;9.90;99.90;;;;;;5066167;28;20204;-80
2021/05/20 05:06:34;;;;;;;0.50;0.50;;;9.90;99.90;;;;;;5067225;28;20211;-81
2021/05/20 05:09:01;;;;;;;1.92;1.73;;;9.90;99.90;;;;;;5066622;28;20197;-80
2021/05/20 05:11:27;;;;;;;3.70;3.42;;;9.90;99.90;;;;;;5066843;28;20736;-80
2021/05/20 05:13:53;;;;;;;9.77;4.75;;;9.90;99.90;;;;;;5066277;28;20283;-80
2021/05/20 05:16:20;;;;;;;2.08;1.98;;;9.90;99.90;;;;;;5066647;28;20670;-79
2021/05/20 05:18:47;;;;;;;3.90;3.60;;;9.90;99.90;;;;;;5082929;28;20220;-80
2021/05/20 05:21:13;;;;;;;6.53;5.03;;;9.80;99.90;;;;;;5086409;28;20196;-80
2021/05/20 05:23:40;;;;;;;2.35;2.15;;;9.70;99.90;;;;;;5085915;28;20206;-81
2021/05/20 05:26:06;;;;;;;0.70;0.70;;;9.70;99.90;;;;;;5085539;28;20193;-80
2021/05/20 05:28:33;;;;;;;5.65;5.03;;;9.70;99.90;;;;;;5086314;28;20218;-80
2021/05/20 05:30:59;;;;;;;0.70;0.70;;;9.60;99.90;;;;;;5087807;28;20200;-80
2021/05/20 05:33:25;;;;;;;8.02;7.22;;;9.60;99.90;;;;;;5086431;28;20255;-81
2021/05/20 05:35:52;;;;;;;3.60;3.50;;;9.60;99.90;;;;;;5086097;28;20199;-81
2021/05/20 05:38:18;;;;;;;4.93;3.30;;;9.60;99.90;;;;;;5086382;28;20211;-80
2021/05/20 05:40:45;;;;;;;1.60;1.20;;;9.70;99.90;;;;;;5087266;28;20263;-80
2021/05/20 05:43:11;;;;;;;1.05;0.95;;;9.50;99.90;;;;;;5086337;28;20218;-75
2021/05/20 05:45:37;;;;;;;0.50;0.50;;;9.60;99.90;;;;;;5087403;28;20669;-81
2021/05/20 05:48:06;;;;;;;6.18;2.70;;;9.60;99.90;;;;;;5085782;28;20310;-80
2021/05/20 05:50:32;;;;;;;0.50;0.50;;;9.70;99.90;;;;;;5085934;28;20192;-81
2021/05/20 05:53:03;;;;;;;5.30;2.20;;;9.80;99.90;;;;;;5085615;28;20194;-78
2021/05/20 05:55:29;;;;;;;12.18;7.43;;;9.90;99.90;;;;;;5085598;28;20196;-81
2021/05/20 05:57:55;;;;;;;0.80;0.80;;;9.90;99.90;;;;;;5086219;28;20219;-81
2021/05/20 06:00:23;;;;;;;3.63;3.38;;;9.90;99.90;;;;;;5084653;28;20282;-78
2021/05/20 06:02:49;;;;;;;4.63;3.95;;;10.00;99.90;;;;;;5084736;28;20225;-78
2021/05/20 06:05:15;;;;;;;1.60;1.50;;;10.00;99.90;;;;;;5085132;28;20209;-79
2021/05/20 06:07:43;;;;;;;4.88;3.72;;;10.00;99.90;;;;;;5084222;28;20230;-79
2021/05/20 06:10:11;;;;;;;0.75;0.75;;;10.00;99.90;;;;;;5084529;28;20191;-79
2021/05/20 06:12:37;;;;;;;2.35;2.25;;;9.90;99.90;;;;;;5084411;28;20278;-80
2021/05/20 06:15:05;;;;;;;3.72;3.63;;;9.80;99.90;;;;;;5084681;28;20268;-79
2021/05/20 06:17:32;;;;;;;22.15;9.07;;;9.80;99.90;;;;;;5084532;28;20231;-79
2021/05/20 06:19:58;;;;;;;0.50;0.40;;;9.80;99.90;;;;;;5075634;28;20780;-79
2021/05/20 06:22:24;;;;;;;3.60;3.40;;;9.80;99.90;;;;;;5064872;28;20217;-80
2021/05/20 06:24:50;;;;;;;3.85;2.28;;;9.90;99.90;;;;;;5064521;28;20208;-79
2021/05/20 06:27:19;;;;;;;0.50;0.40;;;9.90;99.90;;;;;;5065676;28;20646;-79
2021/05/20 06:29:46;;;;;;;1.80;1.02;;;9.90;99.90;;;;;;5065306;28;20287;-78
2021/05/20 06:32:12;;;;;;;0.85;0.82;;;10.10;99.90;;;;;;5064375;28;20285;-79
2021/05/20 06:34:38;;;;;;;0.73;0.73;;;10.10;99.90;;;;;;5063612;28;20255;-78
2021/05/20 06:37:05;;;;;;;5.43;1.88;;;10.20;99.90;;;;;;5064157;28;20327;-79
2021/05/20 06:39:31;;;;;;;0.98;0.98;;;10.30;99.90;;;;;;5064604;28;20688;-78
2021/05/20 06:41:57;;;;;;;5.25;4.85;;;10.30;99.90;;;;;;5064638;28;20217;-79
2021/05/20 06:44:24;;;;;;;0.50;0.40;;;10.40;99.90;;;;;;5064761;28;20204;-79
2021/05/20 06:46:51;;;;;;;3.38;1.95;;;10.40;99.90;;;;;;5064456;28;20232;-79
2021/05/20 06:49:17;;;;;;;8.70;7.93;;;10.50;99.90;;;;;;5083370;28;20595;-78
2021/05/20 06:51:43;;;;;;;5.40;3.17;;;10.60;99.90;;;;;;5082954;28;20199;-80
2021/05/20 06:54:09;;;;;;;4.10;3.50;;;10.40;99.90;;;;;;5083749;28;20198;-79
2021/05/20 06:56:37;;;;;;;1.70;1.33;;;10.40;99.90;;;;;;5082990;28;20200;-80
2021/05/20 07:01:49;;;;;;;4.38;4.03;;;10.40;99.90;;;;;;5085104;28;20220;-80
2021/05/20 07:04:16;;;;;;;7.45;6.88;;;10.30;99.90;;;;;;5083805;28;20664;-80
2021/05/20 07:06:42;;;;;;;6.95;3.35;;;10.30;99.90;;;;;;5084624;28;20200;-78
2021/05/20 07:09:09;;;;;;;9.52;4.63;;;10.20;99.90;;;;;;5083550;28;20215;-80
2021/05/20 07:11:35;;;;;;;1.77;1.65;;;10.20;99.90;;;;;;5083343;28;20252;-79
2021/05/20 07:14:01;;;;;;;7.60;4.13;;;10.20;99.90;;;;;;5083636;28;20201;-79
2021/05/20 07:16:28;;;;;;;4.13;3.83;;;10.30;99.90;;;;;;5083838;28;20217;-79
2021/05/20 07:18:55;;;;;;;1.15;1.05;;;10.30;99.90;;;;;;5081946;28;20561;-79
2021/05/20 07:21:21;;;;;;;1.90;1.80;;;10.20;99.90;;;;;;5063831;28;20192;-79
2021/05/20 07:23:47;;;;;;;2.83;2.63;;;10.20;99.90;;;;;;5063275;28;20197;-78
2021/05/20 07:26:13;;;;;;;1.73;1.40;;;10.20;99.90;;;;;;5064033;28;20199;-79
2021/05/20 07:28:40;;;;;;;2.90;2.67;;;10.20;99.90;;;;;;5064099;28;20240;-80
2021/05/20 07:31:06;;;;;;;8.38;6.18;;;10.10;99.90;;;;;;5063316;28;20197;-80
2021/05/20 07:33:32;;;;;;;7.20;6.47;;;10.10;99.90;;;;;;5063683;28;20200;-79
2021/05/20 07:36:00;;;;;;;2.78;2.25;;;10.10;99.90;;;;;;5064377;28;20222;-80
2021/05/20 07:38:27;;;;;;;1.05;1.05;;;10.10;99.90;;;;;;5064040;28;20281;-80
2021/05/20 07:40:54;;;;;;;0.50;0.40;;;10.20;99.90;;;;;;5062884;28;20259;-79
2021/05/20 07:43:20;;;;;;;0.65;0.65;;;10.30;99.90;;;;;;5064329;28;20275;-80
2021/05/20 07:45:49;;;;;;;9.82;5.88;;;10.30;99.90;;;;;;5063726;28;20257;-80
2021/05/20 07:48:15;;;;;;;8.23;4.00;;;10.20;99.90;;;;;;5075702;28;20228;-78
2021/05/20 07:50:42;;;;;;;3.38;3.17;;;10.20;99.90;;;;;;5065790;28;20192;-80
2021/05/20 07:53:10;;;;;;;6.88;4.40;;;10.20;99.90;;;;;;5061262;28;20189;-80
2021/05/20 07:55:36;;;;;;;4.63;1.85;;;10.20;99.90;;;;;;5062380;28;20373;-80
2021/05/20 07:58:04;;;;;;;4.15;3.85;;;10.30;99.90;;;;;;5062563;28;20217;-80
2021/05/20 08:00:31;;;;;;;15.63;9.02;;;10.50;99.90;;;;;;5062579;28;20208;-77
2021/05/20 08:03:02;;;;;;;2.65;2.55;;;10.40;99.90;;;;;;5062344;28;20249;-79
2021/05/20 08:05:33;;;;;;;0.90;0.90;;;10.40;99.90;;;;;;5062428;28;20517;-80
2021/05/20 08:08:05;;;;;;;0.60;0.60;;;10.50;99.90;;;;;;5063006;28;20216;-79
2021/05/20 08:10:46;;;;;;;6.18;5.70;;;10.50;99.90;;;;;;5062551;28;20264;-77
2021/05/20 08:13:12;;;;;;;5.32;4.43;;;10.60;99.90;;;;;;5062756;28;20190;-80
2021/05/20 08:15:38;;;;;;;5.32;4.82;;;10.60;99.90;;;;;;5062558;28;20693;-77
2021/05/20 08:18:05;;;;;;;8.57;7.57;;;10.50;99.90;;;;;;5074328;28;20218;-79
2021/05/20 08:20:31;;;;;;;3.85;3.65;;;10.60;99.90;;;;;;5067630;28;20637;-77
2021/05/20 08:22:58;;;;;;;6.50;2.47;;;10.50;99.90;;;;;;5063202;28;20213;-79
2021/05/20 08:25:25;;;;;;;6.47;3.53;;;10.50;99.90;;;;;;5062358;28;20220;-80
2021/05/20 08:27:52;;;;;;;7.13;5.82;;;10.50;99.90;;;;;;5063213;28;20227;-80
2021/05/20 08:30:19;;;;;;;8.82;8.20;;;10.60;99.90;;;;;;5063163;28;20236;-79
2021/05/20 08:32:46;;;;;;;0.85;0.85;;;10.60;99.90;;;;;;5061745;28;20196;-78
2021/05/20 08:35:13;;;;;;;15.05;9.30;;;10.70;99.90;;;;;;5062107;28;20291;-80
2021/05/20 08:37:40;;;;;;;9.63;4.75;;;10.60;99.90;;;;;;5063799;28;20222;-79
2021/05/20 08:40:07;;;;;;;0.73;0.73;;;10.60;99.90;;;;;;5065088;28;20202;-80
2021/05/20 08:42:34;;;;;;;17.02;7.22;;;10.70;99.90;;;;;;5063399;28;20280;-78
2021/05/20 08:45:13;;;;;;;13.45;8.70;;;10.80;99.90;;;;;;5062629;28;20199;-79
2021/05/20 08:47:40;;;;;;;9.38;5.38;;;10.80;99.90;;;;;;5069603;28;20724;-80
2021/05/20 08:50:07;;;;;;;1.40;1.30;;;10.70;99.90;;;;;;5083774;28;20225;-80
2021/05/20 08:52:34;;;;;;;14.77;6.78;;;10.70;99.90;;;;;;5083096;28;20204;-76
2021/05/20 08:55:01;;;;;;;31.90;9.52;;;10.90;99.90;;;;;;5083084;28;20193;-79
2021/05/20 08:57:27;;;;;;;4.53;3.47;;;11.00;99.90;;;;;;5081400;28;20619;-77
2021/05/20 08:59:53;;;;;;;11.10;9.05;;;11.10;99.90;;;;;;5083295;28;20395;-80
2021/05/20 09:02:25;;;;;;;2.78;2.58;;;11.10;99.90;;;;;;5082822;28;20213;-81
2021/05/20 09:04:59;;;;;;;0.80;0.80;;;11.20;99.90;;;;;;5083496;28;20319;-79
2021/05/20 09:07:31;;;;;;;34.65;4.10;;;11.30;99.90;;;;;;5082746;28;20220;-80
2021/05/20 09:10:11;;;;;;;1.00;1.00;;;11.40;99.90;;;;;;5084667;28;20427;-79
2021/05/20 09:12:38;;;;;;;9.52;7.55;;;11.30;99.90;;;;;;5083499;28;20190;-78
2021/05/20 09:15:14;;;;;;;3.33;2.50;;;11.30;99.90;;;;;;5081935;28;20205;-78
2021/05/20 09:17:42;;;;;;;0.55;0.52;;;11.40;99.90;;;;;;5082674;28;20224;-78
2021/05/20 09:20:09;;;;;;;5.32;4.85;;;11.60;99.90;;;;;;5080721;28;20204;-78
2021/05/20 09:22:36;;;;;;;3.22;2.92;;;11.60;99.90;;;;;;5082190;28;20342;-76
2021/05/20 09:25:04;;;;;;;3.15;2.95;;;11.40;99.90;;;;;;5083372;28;20220;-79
2021/05/20 09:27:34;;;;;;;0.50;0.40;;;11.40;99.90;;;;;;5082525;28;20218;-79
2021/05/20 09:30:24;;;;;;;4.82;4.57;;;11.60;99.90;;;;;;5083047;28;20193;-80
2021/05/20 09:32:53;;;;;;;12.95;5.32;;;11.80;99.90;;;;;;5056853;28;20197;-79
2021/05/20 09:35:21;;;;;;;0.70;0.70;;;12.30;99.90;;;;;;5081656;28;20190;-80
2021/05/20 09:37:54;;;;;;;0.65;0.65;;;12.40;99.90;;;;;;5082824;28;20750;-79
2021/05/20 09:40:22;;;;;;;3.65;3.45;;;12.70;99.90;;;;;;5082962;28;20194;-80
2021/05/20 09:42:49;;;;;;;5.28;4.45;;;12.90;99.90;;;;;;5083161;28;20210;-79
2021/05/20 09:45:18;;;;;;;6.45;6.13;;;13.10;99.90;;;;;;5085724;28;20197;-79
2021/05/20 09:47:45;;;;;;;5.03;4.07;;;13.30;99.90;;;;;;5085443;28;20287;-80
2021/05/20 09:50:14;;;;;;;1.60;1.50;;;13.50;99.90;;;;;;5074790;28;20198;-79
2021/05/20 09:52:41;;;;;;;1.73;1.60;;;13.60;99.90;;;;;;5065973;28;20433;-78
2021/05/20 09:55:19;;;;;;;2.47;2.33;;;13.90;99.90;;;;;;5065083;28;20290;-79
2021/05/20 09:57:46;;;;;;;12.97;4.97;;;13.90;99.90;;;;;;5064940;28;20447;-79
2021/05/20 10:00:15;;;;;;;0.50;0.40;;;14.10;99.90;;;;;;5065453;28;20437;-80
2021/05/20 10:02:42;;;;;;;4.30;3.90;;;14.20;99.90;;;;;;5064980;28;20590;-79
2021/05/20 10:05:25;;;;;;;0.50;0.37;;;14.40;99.90;;;;;;5064449;28;20588;-80
2021/05/20 10:07:52;;;;;;;1.07;0.97;;;14.60;99.90;;;;;;5062482;28;20468;-78
2021/05/20 10:10:19;;;;;;;1.27;1.17;;;15.00;99.90;;;;;;5065610;28;20433;-79
2021/05/20 10:12:46;;;;;;;5.53;2.80;;;14.90;99.90;;;;;;5064253;28;20889;-79
2021/05/20 10:15:15;;;;;;;0.50;0.50;;;14.80;99.90;;;;;;5064963;28;21056;-79
2021/05/20 10:17:43;;;;;;;1.37;1.30;;;14.80;99.90;;;;;;5072897;28;20522;-79
2021/05/20 10:20:12;;;;;;;4.50;2.00;;;15.00;99.90;;;;;;5084735;28;20422;-79
2021/05/20 10:22:39;;;;;;;5.47;2.70;;;15.50;99.90;;;;;;5083168;28;20465;-79
2021/05/20 10:25:07;;;;;;;10.33;5.10;;;15.80;99.90;;;;;;5083721;28;20585;-79
2021/05/20 10:27:35;;;;;;;4.50;2.63;;;15.70;99.90;;;;;;5083205;28;20914;-79
2021/05/20 10:30:03;;;;;;;7.47;3.90;;;16.10;99.90;;;;;;5082900;28;20436;-79
2021/05/20 10:32:31;;;;;;;2.77;2.67;;;16.40;99.90;;;;;;5084956;28;20525;-80
2021/05/20 10:34:58;;;;;;;1.63;1.27;;;16.30;99.90;;;;;;5085023;28;20612;-79
2021/05/20 10:37:35;;;;;;;1.77;1.13;;;16.00;99.90;;;;;;5084938;28;20457;-79
2021/05/20 10:40:11;;;;;;;1.13;0.97;;;16.00;99.90;;;;;;5084326;28;20429;-80
2021/05/20 10:42:39;;;;;;;0.50;0.50;;;15.80;99.90;;;;;;5084732;28;20461;-79
2021/05/20 10:45:20;;;;;;;1.67;1.50;;;16.10;99.90;;;;;;5083881;28;20443;-80
2021/05/20 10:48:21;;;;;;;8.50;6.27;;;16.30;99.90;;;;;;5104856;22;20479;-78
2021/05/20 10:50:59;;;;;;;5.50;1.43;;;16.10;99.90;;;;;;5073698;28;20444;-82
2021/05/20 10:53:46;;;;;;;0.73;0.73;;;16.00;99.90;;;;;;5077215;28;20963;-82
2021/05/20 10:56:48;;;;;;;0.60;0.53;;;16.00;99.90;;;;;;5078140;28;20789;-82
2021/05/20 10:59:44;;;;;;;1.17;1.07;;;16.00;99.90;;;;;;5071918;28;20465;-82
2021/05/20 11:02:29;;;;;;;0.50;0.40;;;16.10;99.90;;;;;;5076929;28;20837;-82
2021/05/20 11:04:55;;;;;;;2.30;1.83;;;16.10;99.90;;;;;;5077778;28;20440;-82
2021/05/20 11:07:31;;;;;;;0.50;0.40;;;16.30;99.90;;;;;;5077670;28;20759;-81
2021/05/20 11:10:10;;;;;;;2.87;2.03;;;16.60;99.90;;;;;;5077840;28;20420;-81
2021/05/20 11:12:54;;;;;;;0.60;0.50;;;17.00;99.90;;;;;;5078721;28;20825;-81
2021/05/20 11:15:23;;;;;;;1.47;0.93;;;17.30;99.90;;;;;;5078699;28;20470;-81
2021/05/20 11:17:49;;;;;;;2.20;1.70;;;17.30;99.90;;;;;;5078547;28;20548;-82
2021/05/20 11:20:52;;;;;;;0.50;0.50;;;17.20;99.90;;;;;;5072983;28;20504;-82
2021/05/20 11:23:24;;;;;;;0.77;0.77;;;17.30;99.90;;;;;;5078376;28;20481;-81
2021/05/20 11:26:08;;;;;;;0.60;0.40;;;17.60;99.90;;;;;;5078571;28;20446;-82
2021/05/20 11:29:10;;;;;;;0.70;0.67;;;17.70;99.90;;;;;;5079185;28;20535;-82
2021/05/20 11:31:41;;;;;;;3.47;1.23;;;18.00;99.90;;;;;;5061046;28;21070;-82
2021/05/20 11:36:50;;;;;;;0.60;0.57;;;18.50;99.90;;;;;;5061292;28;20429;-82
2021/05/20 11:39:18;;;;;;;0.60;0.43;;;18.40;99.90;;;;;;5076879;28;20558;-81
2021/05/20 11:41:46;;;;;;;0.50;0.40;;;18.60;99.90;;;;;;5077530;28;20435;-80
2021/05/20 11:44:15;;;;;;;0.50;0.30;;;18.80;99.90;;;;;;5077417;28;20443;-81
2021/05/20 11:46:44;;;;;;;0.50;0.40;;;18.70;99.90;;;;;;5076067;28;20443;-81
2021/05/20 11:49:24;;;;;;;0.77;0.70;;;18.10;99.90;;;;;;5077708;28;20473;-81
2021/05/20 11:51:55;;;;;;;0.70;0.67;;;17.80;99.90;;;;;;5077844;28;20429;-80
2021/05/20 11:54:24;;;;;;;0.60;0.60;;;17.70;99.90;;;;;;5077583;28;20825;-81
2021/05/20 11:56:52;;;;;;;0.50;0.40;;;18.10;99.90;;;;;;5077852;28;20986;-81
2021/05/20 11:59:24;;;;;;;0.50;0.30;;;18.70;99.90;;;;;;5077178;28;20490;-82
2021/05/20 12:01:51;;;;;;;0.50;0.30;;;19.30;99.90;;;;;;5077609;28;20481;-80
2021/05/20 12:04:18;;;;;;;1.07;0.70;;;19.60;99.90;;;;;;5076374;28;20439;-81
2021/05/20 12:06:50;;;;;;;0.73;0.73;;;19.70;99.90;;;;;;5075179;28;20439;-80
2021/05/20 12:09:16;;;;;;;0.50;0.50;;;19.40;99.90;;;;;;5076280;28;20452;-81
2021/05/20 12:11:44;;;;;;;0.50;0.40;;;18.90;99.90;;;;;;5076275;28;20470;-82
2021/05/20 12:14:23;;;;;;;0.80;0.80;;;19.00;99.90;;;;;;5076072;28;20437;-80
2021/05/20 12:17:03;;;;;;;1.50;1.40;;;18.90;99.90;;;;;;5075978;28;20548;-80
2021/05/20 12:19:32;;;;;;;1.50;1.07;;;18.60;99.90;;;;;;5069901;28;21013;-81
2021/05/20 12:22:00;;;;;;;2.63;2.37;;;18.30;99.90;;;;;;5075613;28;20439;-80
2021/05/20 12:24:34;;;;;;;0.50;0.30;;;19.00;99.90;;;;;;5077177;28;20440;-81
2021/05/20 12:27:08;;;;;;;0.50;0.40;;;20.00;99.90;;;;;;5068073;28;20440;-80
2021/05/20 12:29:36;;;;;;;1.20;0.70;;;20.30;96.50;;;;;;5077039;28;20925;-79
2021/05/20 12:32:03;;;;;;;0.50;0.40;;;20.60;92.50;;;;;;5075061;28;20462;-82
2021/05/20 12:34:30;;;;;;;0.50;0.40;;;20.80;87.30;;;;;;5070129;28;20844;-79
2021/05/20 12:37:04;;;;;;;0.80;0.60;;;21.10;85.00;;;;;;5075879;28;20504;-81
2021/05/20 12:39:31;;;;;;;1.17;1.07;;;21.50;84.20;;;;;;5076072;28;20886;-81
2021/05/20 12:41:58;;;;;;;11.27;1.67;;;20.80;79.60;;;;;;5076257;28;20578;-81
2021/05/20 12:44:27;;;;;;;0.60;0.40;;;20.10;83.30;;;;;;5077523;28;20478;-80
2021/05/20 12:46:53;;;;;;;1.63;1.10;;;21.10;86.60;;;;;;5081758;28;20440;-82
2021/05/20 12:49:22;;;;;;;0.70;0.67;;;21.70;79.60;;;;;;5076624;28;20464;-82
2021/05/20 12:51:59;;;;;;;0.57;0.57;;;21.50;78.40;;;;;;5076813;28;20432;-81
2021/05/20 12:54:27;;;;;;;3.90;1.70;;;22.20;75.90;;;;;;5076363;28;20444;-82
2021/05/20 12:57:04;;;;;;;1.03;0.60;;;22.40;71.20;;;;;;5077051;28;20436;-82
2021/05/20 12:59:38;;;;;;;2.30;1.80;;;22.80;71.40;;;;;;5077229;28;20987;-81
2021/05/20 13:02:12;;;;;;;0.50;0.40;;;23.00;70.80;;;;;;5077747;28;20523;-82